createdAt,value
2018-12-27T00:03:18.393Z,6.40
2018-12-27T00:08:35.277Z,6.87
2018-12-27T00:13:51.456Z,7.10
2018-12-27T00:19:07.232Z,6.93
2018-12-27T00:24:22.740Z,7.33
2018-12-27T00:29:38.314Z,6.90
2018-12-27T00:34:53.766Z,7.57
2018-12-27T00:40:09.140Z,7.87
2018-12-27T00:45:24.884Z,7.00
2018-12-27T00:50:40.567Z,7.33
2018-12-27T00:55:55.983Z,7.90
2018-12-27T01:01:11.840Z,7.30
2018-12-27T01:06:27.937Z,7.63
2018-12-27T01:11:43.492Z,7.43
2018-12-27T01:16:59.236Z,7.70
2018-12-27T01:22:15.248Z,8.27
2018-12-27T01:27:30.989Z,8.30
2018-12-27T01:32:46.692Z,7.93
2018-12-27T01:38:02.355Z,7.93
2018-12-27T01:43:18.020Z,8.07
2018-12-27T01:48:33.716Z,9.10
2018-12-27T01:53:49.356Z,8.10
2018-12-27T01:59:05.095Z,8.73
2018-12-27T02:04:20.691Z,8.10
2018-12-27T02:09:36.463Z,8.03
2018-12-27T02:14:52.395Z,8.77
2018-12-27T02:20:08.548Z,8.73
2018-12-27T02:25:24.490Z,8.00
2018-12-27T02:30:39.925Z,9.60
2018-12-27T02:35:55.366Z,8.60
2018-12-27T02:41:10.717Z,8.17
2018-12-27T02:46:26.699Z,8.90
2018-12-27T02:51:42.645Z,8.10
2018-12-27T02:56:58.889Z,8.50
2018-12-27T03:02:14.192Z,8.93
2018-12-27T03:07:33.601Z,8.43
2018-12-27T03:12:49.290Z,8.70
2018-12-27T03:18:05.188Z,9.33
2018-12-27T03:23:20.701Z,8.40
2018-12-27T03:28:36.452Z,8.80
2018-12-27T03:33:52.730Z,8.33
2018-12-27T03:39:08.855Z,7.60
2018-12-27T03:44:24.177Z,8.33
2018-12-27T03:49:40.215Z,8.07
2018-12-27T03:54:56.251Z,9.00
2018-12-27T04:00:12.066Z,8.37
2018-12-27T04:05:28.272Z,9.67
2018-12-27T04:10:44.156Z,7.93
2018-12-27T04:16:00.632Z,8.30
2018-12-27T04:21:15.966Z,8.50
2018-12-27T04:26:32.130Z,8.50
2018-12-27T04:31:48.012Z,8.60
2018-12-27T04:37:03.993Z,9.07
2018-12-27T04:42:19.811Z,8.87
2018-12-27T04:47:35.812Z,7.37
2018-12-27T04:52:55.123Z,7.90
2018-12-27T04:58:10.609Z,7.47
2018-12-27T05:03:26.028Z,9.00
2018-12-27T05:08:41.471Z,8.73
2018-12-27T05:13:58.255Z,8.20
2018-12-27T05:19:13.776Z,7.63
2018-12-27T05:24:29.797Z,8.13
2018-12-27T05:29:45.694Z,7.77
2018-12-27T05:35:01.059Z,8.27
2018-12-27T05:40:17.208Z,8.03
2018-12-27T05:45:33.188Z,7.97
2018-12-27T05:50:49.020Z,8.13
2018-12-27T05:56:05.112Z,9.20
2018-12-27T06:01:21.035Z,7.97
2018-12-27T06:06:36.738Z,8.57
2018-12-27T06:11:52.898Z,7.97
2018-12-27T06:17:11.483Z,8.33
2018-12-27T06:22:27.009Z,8.33
2018-12-27T06:27:42.623Z,7.83
2018-12-27T06:32:58.576Z,8.23
2018-12-27T06:38:14.461Z,7.33
2018-12-27T06:43:29.838Z,7.93
2018-12-27T06:48:45.679Z,8.03
2018-12-27T06:54:01.724Z,8.47
2018-12-27T06:59:17.680Z,9.07
2018-12-27T07:04:33.737Z,9.07
2018-12-27T07:09:49.768Z,9.20
2018-12-27T07:15:05.884Z,8.57
2018-12-27T07:20:21.360Z,8.97
2018-12-27T07:25:37.153Z,8.63
2018-12-27T07:30:52.879Z,8.80
2018-12-27T07:36:08.521Z,9.57
2018-12-27T07:41:24.618Z,9.30
2018-12-27T07:46:40.320Z,8.93
2018-12-27T07:51:55.963Z,9.10
2018-12-27T07:57:11.691Z,8.97
2018-12-27T08:02:27.322Z,10.23
2018-12-27T08:07:42.679Z,9.37
2018-12-27T08:12:58.644Z,10.17
2018-12-27T08:18:14.553Z,9.17
2018-12-27T08:23:30.256Z,9.50
2018-12-27T08:28:45.623Z,10.00
2018-12-27T08:34:01.445Z,9.07
2018-12-27T08:39:17.155Z,9.60
2018-12-27T08:44:32.888Z,9.40
2018-12-27T08:49:48.585Z,10.23
2018-12-27T08:55:04.279Z,9.53
2018-12-27T09:00:20.088Z,10.07
2018-12-27T09:05:35.431Z,9.40
2018-12-27T09:10:51.352Z,10.87
2018-12-27T09:16:06.843Z,10.90
2018-12-27T09:21:22.221Z,9.80
2018-12-27T09:26:38.141Z,10.67
2018-12-27T09:37:36.872Z,10.27
2018-12-27T09:42:52.999Z,10.37
2018-12-27T09:48:08.881Z,11.47
2018-12-27T09:59:05.135Z,11.13
2018-12-27T10:04:21.340Z,11.73
2018-12-27T10:09:36.661Z,11.83
2018-12-27T10:14:50.712Z,11.77
2018-12-27T10:20:06.692Z,12.20
2018-12-27T10:25:22.517Z,12.70
2018-12-27T10:30:38.080Z,11.47
2018-12-27T10:35:53.702Z,12.80
2018-12-27T10:41:09.420Z,11.63
2018-12-27T10:46:25.454Z,11.93
2018-12-27T10:51:40.867Z,11.63
2018-12-27T10:56:56.543Z,12.57
2018-12-27T11:02:12.111Z,13.10
2018-12-27T11:07:27.793Z,11.27
2018-12-27T11:12:43.740Z,11.87
2018-12-27T11:17:59.444Z,12.17
2018-12-27T11:23:15.099Z,12.10
2018-12-27T11:28:30.719Z,12.50
2018-12-27T11:33:46.465Z,12.23
2018-12-27T11:39:01.847Z,12.97
2018-12-27T11:44:17.358Z,13.00
2018-12-27T11:55:16.439Z,13.37
2018-12-27T12:00:32.317Z,11.80
2018-12-27T12:05:48.237Z,12.57
2018-12-27T12:11:04.413Z,11.13
2018-12-27T12:16:20.514Z,12.03
2018-12-27T12:21:35.921Z,12.43
2018-12-27T12:26:52.031Z,11.23
2018-12-27T12:32:08.273Z,11.60
2018-12-27T12:37:23.795Z,11.53
2018-12-27T12:42:40.135Z,10.73
2018-12-27T12:47:56.223Z,10.67
2018-12-27T12:53:12.185Z,11.83
2018-12-27T12:58:27.520Z,11.23
2018-12-27T13:03:42.831Z,10.77
2018-12-27T13:08:58.187Z,11.57
2018-12-27T13:14:14.208Z,10.20
2018-12-27T13:19:30.026Z,10.53
2018-12-27T13:24:46.031Z,10.50
2018-12-27T13:30:02.098Z,10.70
2018-12-27T13:35:17.352Z,10.47
2018-12-27T13:40:33.186Z,10.10
2018-12-27T13:45:48.643Z,10.83
2018-12-27T13:51:04.439Z,10.07
2018-12-27T13:56:20.468Z,9.17
2018-12-27T14:01:37.296Z,9.87
2018-12-27T14:06:53.083Z,9.17
2018-12-27T14:12:08.514Z,9.60
2018-12-27T14:17:24.422Z,8.90
2018-12-27T14:22:40.380Z,9.73
2018-12-27T14:27:55.929Z,9.27
2018-12-27T14:33:11.851Z,8.70
2018-12-27T14:38:27.840Z,7.87
2018-12-27T14:43:43.896Z,8.67
2018-12-27T14:48:59.875Z,8.83
2018-12-27T14:54:15.663Z,8.37
2018-12-27T14:59:31.119Z,8.67
2018-12-27T15:04:47.260Z,9.03
2018-12-27T15:10:02.999Z,7.50
2018-12-27T15:15:19.092Z,8.30
2018-12-27T15:20:34.512Z,8.10
2018-12-27T15:25:50.111Z,8.43
2018-12-27T15:31:05.589Z,8.13
2018-12-27T15:36:21.608Z,7.30
2018-12-27T15:41:37.468Z,8.03
2018-12-27T15:52:33.523Z,8.40
2018-12-27T15:57:49.024Z,7.10
2018-12-27T16:03:04.415Z,8.43
2018-12-27T16:08:20.536Z,7.93
2018-12-27T16:19:16.316Z,7.97
2018-12-27T16:24:32.248Z,8.43
2018-12-27T16:29:48.016Z,7.97
2018-12-27T16:35:03.845Z,8.33
2018-12-27T16:40:19.573Z,7.93
2018-12-27T16:45:35.471Z,8.10
2018-12-27T16:50:51.409Z,7.83
2018-12-27T17:01:47.104Z,8.00
2018-12-27T17:07:02.575Z,8.00
2018-12-27T17:12:18.003Z,7.63
2018-12-27T17:17:34.381Z,8.03
2018-12-27T17:22:49.759Z,7.77
2018-12-27T17:28:05.378Z,8.30
2018-12-27T17:33:24.388Z,7.17
2018-12-27T17:38:40.235Z,7.77
2018-12-27T17:43:56.418Z,7.77
2018-12-27T17:49:12.096Z,8.40
2018-12-27T17:54:27.933Z,7.77
2018-12-27T17:59:44.537Z,7.80
2018-12-27T18:05:00.802Z,8.53
2018-12-27T18:10:17.092Z,7.50
2018-12-27T18:15:33.195Z,7.77
2018-12-27T18:20:47.837Z,7.43
2018-12-27T18:26:10.788Z,7.93
2018-12-27T18:31:33.732Z,8.70
2018-12-27T18:36:56.735Z,7.37
2018-12-27T18:42:20.027Z,8.23
2018-12-27T18:47:42.973Z,8.10
2018-12-27T18:53:06.445Z,8.27
2018-12-27T18:58:29.395Z,7.50
2018-12-27T19:03:52.328Z,7.40
2018-12-27T19:09:15.333Z,7.53
2018-12-27T19:14:38.311Z,8.47
2018-12-27T19:19:54.163Z,9.07
2018-12-27T19:25:09.905Z,7.23
2018-12-27T19:30:25.484Z,8.50
2018-12-27T19:35:41.096Z,7.77
2018-12-27T19:40:56.715Z,8.37
2018-12-27T19:46:12.602Z,7.43
2018-12-27T19:51:29.648Z,8.30
2018-12-27T19:56:45.630Z,7.70
2018-12-27T20:02:01.577Z,7.67
2018-12-27T20:07:17.734Z,6.93
2018-12-27T20:12:33.203Z,7.93
2018-12-27T20:17:49.287Z,7.43
2018-12-27T20:23:05.607Z,7.37
2018-12-27T20:28:22.192Z,7.60
2018-12-27T20:33:38.441Z,7.93
2018-12-27T20:38:54.187Z,7.03
2018-12-27T20:44:10.107Z,6.63
2018-12-27T20:49:25.984Z,7.00
2018-12-27T21:00:22.227Z,7.33
2018-12-27T21:05:38.393Z,7.53
2018-12-27T21:10:54.568Z,7.23
2018-12-27T21:16:10.564Z,7.10
2018-12-27T21:21:26.106Z,6.90
2018-12-27T21:26:42.161Z,6.47
2018-12-27T21:31:57.946Z,6.10
2018-12-27T21:37:13.404Z,6.93
2018-12-27T21:42:29.044Z,6.67
2018-12-27T21:47:44.678Z,7.13
2018-12-27T21:53:00.345Z,6.97
2018-12-27T21:58:16.015Z,7.27
2018-12-27T22:03:31.580Z,6.50
2018-12-27T22:08:47.326Z,7.37
2018-12-27T22:14:02.856Z,7.10
2018-12-27T22:19:18.315Z,6.97
2018-12-27T22:24:34.505Z,6.40
2018-12-27T22:29:50.156Z,6.77
2018-12-27T22:35:06.019Z,6.23
2018-12-27T22:40:21.919Z,6.90
2018-12-27T22:45:37.672Z,7.03
2018-12-27T22:50:53.251Z,6.80
2018-12-27T22:56:09.322Z,6.53
2018-12-27T23:01:25.209Z,6.87
2018-12-27T23:06:40.968Z,6.77
2018-12-27T23:11:56.975Z,6.30
2018-12-27T23:17:12.543Z,6.70
2018-12-27T23:22:28.451Z,6.27
2018-12-27T23:27:44.257Z,6.27
2018-12-27T23:32:59.779Z,6.53
2018-12-27T23:38:15.398Z,6.80
2018-12-27T23:43:31.215Z,6.77
2018-12-27T23:48:46.724Z,6.33
2018-12-27T23:54:02.719Z,6.83
2018-12-27T23:59:18.071Z,5.77
